Time;durP1;ratioP1;P1;durP2;ratioP2;P2;SDS_P1;SDS_P2;PMS_P1;PMS_P2;Temp;Humidity;BMP_temperature;BMP_pressure;BME280_temperature;BME280_humidity;BME280_pressure;Samples;Min_cycle;Max_cycle;Signal;HPM_P1;HPM_P2
2021/09/30 00:02:10;;;;;;;58.37;2.70;;;10.40;1.00;;;;;;5048052;27;20948;-70
2021/09/30 00:04:37;;;;;;;58.27;2.53;;;10.40;1.00;;;;;;5048198;28;21014;-70
2021/09/30 00:07:07;;;;;;;58.30;2.60;;;10.30;1.00;;;;;;5047733;28;20987;-70
2021/09/30 00:09:34;;;;;;;58.27;2.60;;;10.30;1.00;;;;;;5048262;28;20971;-70
2021/09/30 00:12:08;;;;;;;58.30;2.60;;;10.20;1.00;;;;;;5047931;27;20484;-70
2021/09/30 00:14:48;;;;;;;58.50;2.97;;;10.20;1.00;;;;;;5053043;27;20446;-70
2021/09/30 00:33:55;;;;;;;58.47;2.80;;;9.90;1.00;;;;;;5152958;27;20975;-70
2021/09/30 00:41:57;;;;;;;58.53;2.70;;;9.70;1.00;;;;;;5152933;27;20500;-70
2021/09/30 00:47:18;;;;;;;58.57;2.90;;;9.60;1.00;;;;;;5146300;27;20857;-70
2021/09/30 00:50:04;;;;;;;58.43;2.87;;;9.50;1.00;;;;;;5152911;27;20538;-70
2021/09/30 00:52:38;;;;;;;58.57;2.77;;;9.50;1.00;;;;;;5152220;27;20458;-70
2021/09/30 00:55:39;;;;;;;58.37;2.80;;;9.40;1.00;;;;;;5152683;27;20456;-70
2021/09/30 02:19:37;;;;;;;58.70;2.97;;;7.90;1.00;;;;;;5029926;28;20457;-70
2021/09/30 02:27:52;;;;;;;58.70;2.90;;;7.80;1.00;;;;;;5070936;28;20493;-70
2021/09/30 02:30:34;;;;;;;58.47;2.67;;;7.80;1.00;;;;;;5049895;28;20475;-70
2021/09/30 02:58:32;;;;;;;58.58;2.97;;;7.40;1.00;;;;;;5006992;28;20224;-71
2021/09/30 03:01:04;;;;;;;58.53;2.77;;;7.30;1.00;;;;;;5007164;28;20218;-71
2021/09/30 03:03:34;;;;;;;58.77;2.87;;;7.30;1.00;;;;;;5007143;28;20624;-71
2021/09/30 03:06:04;;;;;;;58.60;2.90;;;7.30;1.00;;;;;;5006769;28;20454;-71
2021/09/30 03:08:35;;;;;;;58.43;2.93;;;7.30;1.00;;;;;;5007038;28;20563;-71
2021/09/30 03:11:03;;;;;;;58.53;2.93;;;7.30;1.00;;;;;;5007114;28;20448;-70
2021/09/30 03:13:32;;;;;;;58.23;2.87;;;7.30;1.00;;;;;;5027766;28;20466;-71
2021/09/30 03:16:03;;;;;;;58.50;2.87;;;7.20;1.00;;;;;;5028380;28;20452;-71
2021/09/30 03:18:38;;;;;;;58.63;2.80;;;7.20;1.00;;;;;;5029157;28;20502;-71
2021/09/30 03:23:52;;;;;;;58.40;2.93;;;7.20;1.00;;;;;;5028811;28;20504;-71
2021/09/30 03:26:20;;;;;;;58.50;2.97;;;7.20;1.00;;;;;;5034087;27;20463;-70
2021/09/30 03:28:47;;;;;;;58.50;2.73;;;7.20;1.00;;;;;;5048745;28;20493;-71
2021/09/30 03:31:15;;;;;;;58.58;2.65;;;7.20;1.00;;;;;;5049011;28;20553;-71
2021/09/30 03:33:42;;;;;;;58.37;2.70;;;7.20;1.00;;;;;;5048830;28;20302;-71
2021/09/30 03:36:11;;;;;;;58.47;2.90;;;7.20;1.00;;;;;;5048250;27;20956;-71
2021/09/30 03:38:38;;;;;;;58.60;3.00;;;7.10;1.00;;;;;;5048845;28;20469;-71
2021/09/30 03:41:05;;;;;;;58.47;2.87;;;7.10;1.00;;;;;;5048804;28;20810;-71
2021/09/30 03:43:32;;;;;;;58.60;2.80;;;7.10;1.00;;;;;;5048526;28;20845;-71
2021/09/30 03:45:59;;;;;;;58.10;2.83;;;7.10;1.00;;;;;;5048228;28;20548;-71
2021/09/30 03:48:26;;;;;;;58.07;3.23;;;7.00;1.00;;;;;;5048607;27;20470;-71
2021/09/30 03:51:04;;;;;;;58.60;2.80;;;7.10;1.00;;;;;;5048607;28;20446;-70
2021/09/30 03:53:45;;;;;;;58.60;2.83;;;7.10;1.00;;;;;;5048570;28;20207;-71
2021/09/30 03:56:30;;;;;;;58.23;2.60;;;7.10;1.00;;;;;;5047661;27;20542;-71
2021/09/30 04:01:41;;;;;;;58.47;2.50;;;6.90;1.00;;;;;;5048360;28;20938;-70
2021/09/30 04:04:08;;;;;;;58.27;2.70;;;6.90;1.00;;;;;;5048144;28;20493;-70
2021/09/30 04:06:35;;;;;;;58.43;2.80;;;6.90;1.00;;;;;;5048719;28;20460;-71
2021/09/30 04:09:03;;;;;;;58.63;2.83;;;6.90;1.00;;;;;;5048066;28;20922;-70
2021/09/30 04:11:30;;;;;;;58.90;2.88;;;6.90;1.00;;;;;;5048314;28;20846;-71
2021/09/30 04:13:57;;;;;;;58.17;2.80;;;6.80;1.00;;;;;;5048392;27;20212;-71
2021/09/30 04:16:26;;;;;;;58.43;3.03;;;6.80;1.00;;;;;;5047942;28;20443;-71
2021/09/30 04:18:53;;;;;;;58.67;2.88;;;6.80;1.00;;;;;;5048029;28;20531;-71
2021/09/30 04:21:20;;;;;;;58.37;2.83;;;6.80;1.00;;;;;;5048120;28;20655;-71
2021/09/30 04:23:47;;;;;;;58.63;2.97;;;6.80;1.00;;;;;;5047873;28;20454;-70
2021/09/30 04:26:15;;;;;;;58.37;2.70;;;6.70;1.00;;;;;;5048007;28;20449;-70
2021/09/30 04:28:42;;;;;;;58.53;2.73;;;6.70;1.00;;;;;;5047430;28;20465;-71
2021/09/30 04:31:09;;;;;;;58.47;3.00;;;6.70;1.00;;;;;;5045496;27;20462;-71
2021/09/30 04:33:36;;;;;;;58.33;2.90;;;6.70;1.00;;;;;;5048171;28;20537;-71
2021/09/30 04:36:02;;;;;;;58.50;2.50;;;6.60;1.00;;;;;;5047322;27;20539;-71
2021/09/30 04:38:29;;;;;;;58.45;2.70;;;6.60;1.00;;;;;;5051130;28;20488;-71
2021/09/30 04:40:56;;;;;;;58.80;2.78;;;6.60;1.00;;;;;;5051146;28;20237;-71
2021/09/30 04:43:24;;;;;;;58.67;2.85;;;6.60;1.00;;;;;;5051637;28;20642;-70
2021/09/30 04:45:51;;;;;;;58.65;2.83;;;6.60;1.00;;;;;;5050916;28;20296;-71
2021/09/30 04:48:18;;;;;;;58.60;2.80;;;6.60;1.00;;;;;;5051242;28;20672;-71
2021/09/30 04:50:45;;;;;;;58.58;2.90;;;6.60;1.00;;;;;;5051235;28;20974;-71
2021/09/30 04:53:12;;;;;;;58.70;2.97;;;6.60;1.00;;;;;;5051223;28;20249;-71
2021/09/30 04:55:39;;;;;;;58.37;2.97;;;6.60;1.00;;;;;;5050560;27;20497;-71
2021/09/30 04:58:06;;;;;;;58.67;3.00;;;6.50;1.00;;;;;;5051281;28;20924;-70
2021/09/30 05:00:34;;;;;;;58.53;3.30;;;6.50;1.00;;;;;;5051889;27;20237;-71
2021/09/30 05:03:01;;;;;;;58.47;2.90;;;6.50;1.00;;;;;;5051057;28;20964;-70
2021/09/30 05:05:28;;;;;;;58.35;3.20;;;6.50;1.00;;;;;;5050551;28;21046;-71
2021/09/30 05:07:54;;;;;;;58.47;2.97;;;6.50;1.00;;;;;;5050804;28;20231;-70
2021/09/30 05:10:27;;;;;;;58.27;2.90;;;6.40;1.00;;;;;;5050609;28;20653;-70
2021/09/30 05:12:55;;;;;;;58.47;2.90;;;6.40;1.00;;;;;;5051145;27;20482;-70
2021/09/30 05:15:22;;;;;;;58.23;2.93;;;6.40;1.00;;;;;;5050835;27;20538;-71
2021/09/30 05:17:50;;;;;;;58.53;2.83;;;6.40;1.00;;;;;;5050747;28;20883;-71
2021/09/30 05:20:17;;;;;;;58.67;2.90;;;6.40;1.00;;;;;;5050548;28;20963;-70
2021/09/30 05:22:43;;;;;;;58.67;3.25;;;6.40;1.00;;;;;;5050564;28;20298;-70
2021/09/30 05:25:11;;;;;;;58.38;2.97;;;6.30;1.00;;;;;;5050850;28;20203;-71
2021/09/30 05:27:38;;;;;;;58.78;3.38;;;6.40;1.00;;;;;;5050542;28;20227;-70
2021/09/30 05:30:06;;;;;;;58.47;2.70;;;6.40;1.00;;;;;;5050788;28;20218;-71
2021/09/30 05:32:33;;;;;;;58.80;3.00;;;6.40;1.00;;;;;;5050164;27;20290;-71
2021/09/30 05:35:01;;;;;;;58.45;2.88;;;6.40;1.00;;;;;;5050414;27;20641;-71
2021/09/30 05:37:29;;;;;;;58.23;2.83;;;6.40;1.00;;;;;;5049796;28;20762;-71
2021/09/30 05:39:56;;;;;;;58.05;2.90;;;6.40;1.00;;;;;;5050885;28;20829;-71
2021/09/30 05:42:24;;;;;;;58.47;2.90;;;6.40;1.00;;;;;;5050497;28;20218;-70
2021/09/30 05:44:51;;;;;;;58.97;2.95;;;6.40;1.00;;;;;;5050570;28;20217;-71
2021/09/30 05:47:18;;;;;;;58.30;2.80;;;6.40;1.00;;;;;;5050158;28;20224;-70
2021/09/30 05:49:45;;;;;;;58.80;2.80;;;6.50;1.00;;;;;;5049676;28;20296;-71
2021/09/30 05:52:13;;;;;;;58.47;2.85;;;6.50;1.00;;;;;;5050372;28;20237;-70
2021/09/30 05:54:40;;;;;;;58.17;2.90;;;6.50;1.00;;;;;;5050433;28;20207;-70
2021/09/30 05:57:07;;;;;;;58.90;3.05;;;6.50;1.00;;;;;;5049682;27;20544;-70
2021/09/30 05:59:34;;;;;;;58.73;3.20;;;6.60;1.00;;;;;;5050219;28;20299;-70
2021/09/30 06:10:28;;;;;;;58.20;3.10;;;6.80;1.00;;;;;;5030102;28;20345;-70
2021/09/30 06:12:58;;;;;;;58.45;2.80;;;6.80;1.00;;;;;;5030024;28;20498;-70
2021/09/30 06:15:29;;;;;;;58.00;2.97;;;6.90;1.00;;;;;;5030079;28;20295;-71
2021/09/30 06:17:57;;;;;;;58.60;2.97;;;6.90;1.00;;;;;;5029649;28;20497;-70
2021/09/30 06:20:24;;;;;;;58.63;2.90;;;7.00;1.00;;;;;;5029720;28;20460;-70
2021/09/30 06:22:53;;;;;;;58.70;3.00;;;7.00;1.00;;;;;;5029873;28;20963;-70
2021/09/30 06:25:20;;;;;;;58.70;2.80;;;7.10;1.00;;;;;;5029898;28;20451;-70
2021/09/30 06:27:47;;;;;;;58.23;2.77;;;7.10;1.00;;;;;;5030000;28;20881;-71
2021/09/30 06:30:15;;;;;;;58.57;3.00;;;7.30;1.00;;;;;;5029624;28;20506;-71
2021/09/30 06:32:42;;;;;;;58.43;2.77;;;7.50;1.00;;;;;;5029831;28;20485;-73
2021/09/30 06:35:10;;;;;;;58.27;2.50;;;7.50;1.00;;;;;;5079186;27;20449;-73
2021/09/30 06:37:37;;;;;;;58.47;2.60;;;7.60;1.00;;;;;;5153774;27;20942;-72
2021/09/30 06:40:06;;;;;;;58.37;2.80;;;7.60;1.00;;;;;;5154054;27;20486;-73
2021/09/30 06:42:33;;;;;;;58.77;3.17;;;7.60;1.00;;;;;;5154073;27;21038;-73
2021/09/30 06:44:59;;;;;;;58.33;2.73;;;7.60;1.00;;;;;;5154569;27;20533;-73
2021/09/30 06:47:26;;;;;;;58.27;2.50;;;7.70;1.00;;;;;;5153834;27;20545;-73
2021/09/30 06:49:53;;;;;;;59.70;3.70;;;7.70;1.00;;;;;;5154231;27;20529;-73
2021/09/30 06:52:20;;;;;;;58.47;2.80;;;7.70;1.00;;;;;;5153942;27;20542;-72
2021/09/30 06:54:47;;;;;;;58.47;2.80;;;7.80;1.00;;;;;;5154340;27;20538;-72
2021/09/30 06:57:15;;;;;;;58.30;2.80;;;7.80;1.00;;;;;;5153703;27;20883;-73
2021/09/30 06:59:44;;;;;;;58.57;2.80;;;7.90;1.00;;;;;;5153727;27;20453;-73
2021/09/30 07:02:15;;;;;;;58.17;2.97;;;8.00;1.00;;;;;;5153613;27;20447;-73
2021/09/30 07:04:42;;;;;;;58.37;2.80;;;8.10;1.00;;;;;;5153830;27;20447;-72
2021/09/30 07:07:09;;;;;;;58.50;3.00;;;8.10;1.00;;;;;;5111922;27;20459;-72
2021/09/30 07:09:36;;;;;;;58.63;2.87;;;8.20;1.00;;;;;;5048709;28;20547;-72
2021/09/30 07:12:03;;;;;;;58.43;3.00;;;8.30;1.00;;;;;;5049123;28;20462;-72
2021/09/30 07:14:32;;;;;;;58.43;2.90;;;8.30;1.00;;;;;;5050075;28;20457;-73
2021/09/30 07:16:59;;;;;;;58.47;2.73;;;8.40;1.00;;;;;;5048514;27;20834;-70
2021/09/30 07:19:26;;;;;;;58.47;2.90;;;8.50;1.00;;;;;;5048878;28;20567;-70
2021/09/30 07:21:52;;;;;;;58.70;3.00;;;8.60;1.00;;;;;;5048809;28;20543;-71
2021/09/30 07:24:19;;;;;;;58.73;2.90;;;8.70;1.00;;;;;;5049133;28;20454;-71
2021/09/30 07:26:47;;;;;;;58.37;3.00;;;8.80;1.00;;;;;;5048592;28;20457;-72
2021/09/30 07:29:14;;;;;;;58.33;2.80;;;8.90;1.00;;;;;;5048473;28;21031;-72
2021/09/30 07:31:42;;;;;;;58.37;3.00;;;9.00;1.00;;;;;;5048949;28;20546;-72
2021/09/30 07:34:11;;;;;;;58.47;2.90;;;9.10;1.00;;;;;;5048839;28;20568;-71
2021/09/30 07:36:39;;;;;;;58.57;2.90;;;9.20;1.00;;;;;;5049026;28;20943;-71
2021/09/30 07:39:06;;;;;;;58.37;2.93;;;9.20;1.00;;;;;;5049015;27;20499;-71
2021/09/30 07:41:33;;;;;;;58.37;2.80;;;9.30;1.00;;;;;;5049168;28;20475;-71
2021/09/30 07:44:00;;;;;;;58.47;2.90;;;9.40;1.00;;;;;;5048922;28;20822;-71
2021/09/30 07:46:27;;;;;;;58.50;2.53;;;9.50;1.00;;;;;;5048754;28;20454;-71
2021/09/30 07:48:55;;;;;;;58.33;2.80;;;9.60;1.00;;;;;;5048672;28;20464;-72
2021/09/30 07:51:22;;;;;;;58.47;2.80;;;9.70;1.00;;;;;;5048705;28;20539;-72
2021/09/30 07:53:49;;;;;;;58.40;2.70;;;9.90;1.00;;;;;;5049074;28;20552;-72
2021/09/30 07:56:15;;;;;;;58.27;2.57;;;10.10;1.00;;;;;;5048313;28;20835;-72
2021/09/30 07:58:42;;;;;;;58.27;2.70;;;10.20;1.00;;;;;;5048141;27;21041;-72
2021/09/30 08:01:09;;;;;;;58.13;2.60;;;10.40;1.00;;;;;;5048706;28;20455;-72
2021/09/30 08:03:36;;;;;;;58.23;2.60;;;10.50;1.00;;;;;;5048487;28;20530;-73
2021/09/30 08:06:04;;;;;;;58.17;2.70;;;10.60;1.00;;;;;;5048345;28;20531;-72
2021/09/30 08:08:31;;;;;;;58.23;2.60;;;10.70;1.00;;;;;;5048646;28;20471;-73
2021/09/30 08:10:59;;;;;;;58.27;2.60;;;10.80;1.00;;;;;;5048130;27;20542;-72
2021/09/30 08:13:26;;;;;;;58.07;2.73;;;10.90;1.00;;;;;;5051862;27;20473;-72
2021/09/30 08:15:53;;;;;;;58.13;2.70;;;11.00;1.00;;;;;;5051472;28;20535;-72
2021/09/30 08:18:20;;;;;;;58.33;2.70;;;11.20;1.00;;;;;;5051639;27;20586;-72
2021/09/30 08:20:47;;;;;;;58.27;2.70;;;11.30;1.00;;;;;;5052002;28;20448;-72
2021/09/30 08:23:16;;;;;;;58.13;2.30;;;11.40;1.00;;;;;;5051648;28;20458;-73
2021/09/30 08:25:43;;;;;;;58.20;2.53;;;11.50;1.00;;;;;;5051416;28;20663;-72
2021/09/30 08:28:11;;;;;;;57.97;2.60;;;11.70;1.00;;;;;;5051828;28;20547;-72
2021/09/30 08:30:40;;;;;;;57.93;2.43;;;11.90;1.00;;;;;;5051319;28;20463;-72
2021/09/30 08:33:08;;;;;;;57.93;2.40;;;12.10;1.00;;;;;;5051641;27;20448;-72
2021/09/30 08:35:35;;;;;;;58.23;2.60;;;12.20;1.00;;;;;;5051910;28;20521;-72
2021/09/30 08:38:02;;;;;;;58.17;2.80;;;12.20;1.00;;;;;;5051401;27;20523;-72
2021/09/30 08:40:31;;;;;;;58.00;2.50;;;12.30;1.00;;;;;;5050070;27;20511;-72
2021/09/30 08:42:58;;;;;;;58.37;3.00;;;12.30;1.00;;;;;;5051261;28;20443;-72
2021/09/30 08:45:25;;;;;;;58.13;2.60;;;12.50;1.00;;;;;;5051524;28;20543;-72
2021/09/30 08:47:56;;;;;;;58.07;2.70;;;12.60;1.00;;;;;;5051713;28;20491;-71
2021/09/30 08:50:24;;;;;;;58.20;2.60;;;12.80;1.00;;;;;;5051040;28;20448;-71
2021/09/30 08:52:50;;;;;;;58.27;2.90;;;13.10;1.00;;;;;;5051138;28;20506;-72
2021/09/30 08:55:17;;;;;;;58.03;2.60;;;13.50;1.00;;;;;;5050989;28;20524;-72
2021/09/30 08:57:47;;;;;;;58.07;2.47;;;13.80;1.00;;;;;;5050906;28;20832;-72
2021/09/30 09:00:16;;;;;;;58.17;2.37;;;14.10;1.00;;;;;;5050905;27;20449;-72
2021/09/30 09:02:46;;;;;;;58.10;2.30;;;14.20;1.00;;;;;;5051214;28;20541;-73
2021/09/30 09:05:13;;;;;;;58.13;2.50;;;14.40;1.00;;;;;;5050916;28;20558;-72
2021/09/30 09:07:40;;;;;;;58.07;2.50;;;14.60;1.00;;;;;;5050778;28;20466;-72
2021/09/30 09:10:10;;;;;;;58.03;2.57;;;14.70;1.00;;;;;;5051200;28;20445;-72
2021/09/30 09:12:37;;;;;;;57.97;2.37;;;14.70;1.00;;;;;;5050154;27;20945;-71
2021/09/30 09:15:07;;;;;;;57.93;2.30;;;14.80;1.00;;;;;;5051108;28;20450;-72
2021/09/30 09:17:34;;;;;;;57.87;2.70;;;14.90;1.00;;;;;;5050644;28;20477;-72
2021/09/30 09:20:03;;;;;;;57.97;2.63;;;14.90;1.00;;;;;;5050549;27;20580;-72
2021/09/30 09:22:32;;;;;;;58.07;2.70;;;15.00;1.00;;;;;;5050338;28;20486;-72
2021/09/30 09:25:04;;;;;;;58.07;2.70;;;15.20;1.00;;;;;;5049701;28;20478;-72
2021/09/30 09:27:49;;;;;;;58.10;2.57;;;15.30;1.00;;;;;;5050122;28;21013;-70
2021/09/30 09:30:33;;;;;;;58.07;2.50;;;15.50;1.00;;;;;;5050243;28;20884;-70
2021/09/30 09:33:07;;;;;;;58.27;2.90;;;15.60;1.00;;;;;;5050299;28;20448;-71
2021/09/30 09:35:58;;;;;;;58.13;2.67;;;15.70;1.00;;;;;;5050599;27;20451;-71
2021/09/30 09:38:28;;;;;;;58.17;2.60;;;15.70;1.00;;;;;;5050211;28;20494;-71
2021/09/30 09:41:00;;;;;;;57.93;2.60;;;15.90;1.00;;;;;;5050099;27;20478;-71
2021/09/30 09:43:36;;;;;;;57.97;2.50;;;16.20;1.00;;;;;;5049917;27;20831;-71
2021/09/30 09:46:06;;;;;;;58.27;2.40;;;16.50;1.00;;;;;;5050094;28;20451;-71
2021/09/30 09:48:34;;;;;;;57.77;2.43;;;16.70;1.00;;;;;;5050250;28;20463;-71
2021/09/30 09:51:03;;;;;;;58.17;2.60;;;17.10;1.00;;;;;;5050080;28;21149;-72
2021/09/30 09:53:33;;;;;;;58.30;2.43;;;17.40;1.00;;;;;;5050165;28;20947;-73
2021/09/30 09:56:12;;;;;;;57.93;2.30;;;18.00;1.00;;;;;;5050315;28;20448;-73
2021/09/30 09:58:43;;;;;;;58.07;2.60;;;18.30;1.00;;;;;;5050611;28;20485;-73
2021/09/30 10:01:12;;;;;;;58.00;2.30;;;18.90;1.00;;;;;;5049974;27;20479;-73
2021/09/30 10:03:39;;;;;;;57.83;2.80;;;19.70;1.00;;;;;;5050196;28;20946;-73
2021/09/30 10:06:07;;;;;;;57.60;2.50;;;20.70;1.00;;;;;;5049627;28;20477;-71
2021/09/30 10:08:34;;;;;;;58.07;2.90;;;21.70;1.00;;;;;;5050033;28;20547;-69
2021/09/30 10:11:02;;;;;;;57.63;2.37;;;22.70;1.00;;;;;;5050288;28;20543;-70
2021/09/30 10:13:32;;;;;;;58.20;2.40;;;23.30;1.00;;;;;;5049794;28;20448;-70
2021/09/30 10:15:59;;;;;;;57.97;2.30;;;23.50;1.00;;;;;;5047947;27;20532;-69
2021/09/30 10:18:28;;;;;;;58.03;2.30;;;23.10;1.00;;;;;;5049712;28;20923;-69
2021/09/30 10:20:56;;;;;;;58.07;2.30;;;23.20;1.00;;;;;;5049443;27;20456;-70
2021/09/30 10:23:24;;;;;;;57.73;2.30;;;23.90;1.00;;;;;;5050110;28;20493;-69
2021/09/30 10:25:53;;;;;;;57.77;2.10;;;24.50;1.00;;;;;;5049351;28;20483;-71
2021/09/30 10:28:21;;;;;;;57.57;2.10;;;25.30;1.00;;;;;;5049522;28;20478;-68
2021/09/30 10:30:50;;;;;;;57.67;2.20;;;25.60;1.00;;;;;;5049480;28;20558;-69
2021/09/30 10:33:20;;;;;;;57.77;2.10;;;25.20;1.00;;;;;;5049497;28;20879;-69
2021/09/30 10:35:52;;;;;;;57.77;2.33;;;25.60;1.00;;;;;;5048887;27;20455;-69
2021/09/30 10:38:21;;;;;;;57.57;2.10;;;26.20;1.00;;;;;;5049412;28;20468;-71
2021/09/30 10:41:08;;;;;;;57.73;2.40;;;26.70;1.00;;;;;;5049095;27;20501;-71
2021/09/30 10:43:41;;;;;;;57.53;2.07;;;27.70;1.00;;;;;;5049552;27;20955;-70
2021/09/30 10:46:08;;;;;;;57.23;1.90;;;28.60;1.00;;;;;;5047178;27;20459;-70
2021/09/30 10:48:40;;;;;;;57.43;1.93;;;29.30;1.00;;;;;;5049061;28;20521;-70
2021/09/30 10:51:11;;;;;;;57.70;2.40;;;29.60;99.90;;;;;;5049085;28;20450;-70
2021/09/30 10:53:58;;;;;;;58.27;2.20;;;29.80;1.00;;;;;;5049166;28;20486;-70
2021/09/30 10:56:42;;;;;;;57.27;2.20;;;29.80;99.90;;;;;;5048810;28;20585;-70
2021/09/30 10:59:41;;;;;;;57.43;2.00;;;29.90;99.90;;;;;;5049362;28;20463;-70
2021/09/30 11:02:12;;;;;;;57.47;2.00;;;30.20;99.90;;;;;;5048806;27;20460;-71
2021/09/30 11:05:09;;;;;;;57.37;2.03;;;29.80;99.90;;;;;;5049363;28;20879;-71
2021/09/30 11:07:38;;;;;;;57.73;2.23;;;28.50;99.90;;;;;;5049066;28;20481;-71
2021/09/30 11:10:22;;;;;;;57.57;2.20;;;27.10;99.90;;;;;;5048879;28;20480;-71
2021/09/30 11:13:19;;;;;;;57.60;2.20;;;26.80;99.90;;;;;;5048683;28;20453;-70
2021/09/30 11:16:02;;;;;;;57.50;1.90;;;27.60;99.90;;;;;;5048676;28;20879;-71
2021/09/30 11:18:46;;;;;;;57.57;2.20;;;28.30;99.90;;;;;;5050439;27;20904;-70
2021/09/30 11:21:44;;;;;;;57.30;2.10;;;29.10;99.90;;;;;;5048437;27;20507;-71
2021/09/30 11:24:24;;;;;;;57.33;1.90;;;29.40;99.90;;;;;;5049119;28;20458;-70
2021/09/30 11:27:14;;;;;;;57.13;1.83;;;29.50;99.90;;;;;;5048333;28;20455;-70
2021/09/30 11:29:42;;;;;;;57.30;1.90;;;29.20;99.90;;;;;;5048300;28;20572;-71
2021/09/30 11:32:37;;;;;;;57.30;1.90;;;29.10;99.90;;;;;;5048755;28;20445;-70
2021/09/30 11:35:09;;;;;;;57.70;2.40;;;28.80;99.90;;;;;;5047964;28;20895;-70
2021/09/30 11:37:45;;;;;;;57.20;2.10;;;28.80;99.90;;;;;;5047910;28;20972;-71
2021/09/30 11:40:18;;;;;;;57.30;2.07;;;29.40;99.90;;;;;;5048662;28;20532;-72
2021/09/30 11:42:48;;;;;;;57.17;1.90;;;30.20;99.90;;;;;;5048339;27;20487;-72
2021/09/30 11:45:17;;;;;;;57.23;1.90;;;30.70;99.90;;;;;;5048684;28;20451;-72
2021/09/30 11:47:45;;;;;;;57.17;1.90;;;29.90;99.90;;;;;;5047110;28;20474;-72
2021/09/30 11:50:21;;;;;;;57.37;1.90;;;29.20;99.90;;;;;;5108503;27;21025;-71
2021/09/30 11:53:04;;;;;;;57.37;1.90;;;28.70;99.90;;;;;;5153262;27;20442;-72
2021/09/30 11:55:34;;;;;;;57.07;1.80;;;28.70;99.90;;;;;;5152757;27;20452;-72
2021/09/30 11:58:04;;;;;;;57.30;1.90;;;29.10;99.90;;;;;;5152827;27;21028;-72
2021/09/30 12:00:33;;;;;;;57.13;2.00;;;29.80;99.90;;;;;;5152829;27;20442;-72
2021/09/30 12:03:03;;;;;;;57.17;1.97;;;30.60;99.90;;;;;;5152768;27;20447;-71
2021/09/30 12:05:32;;;;;;;57.27;2.07;;;31.00;99.90;;;;;;5153130;27;20475;-71
2021/09/30 12:08:02;;;;;;;57.37;1.83;;;31.70;99.90;;;;;;5153022;27;20503;-71
2021/09/30 12:10:29;;;;;;;57.90;2.00;;;32.50;99.90;;;;;;5152816;27;20983;-71
2021/09/30 12:12:58;;;;;;;56.93;1.80;;;32.60;99.90;;;;;;5153377;27;20954;-72
2021/09/30 12:15:25;;;;;;;57.30;1.97;;;32.10;99.90;;;;;;5152359;27;20487;-71
2021/09/30 12:17:52;;;;;;;56.93;1.90;;;31.50;99.90;;;;;;5152678;27;20995;-71
2021/09/30 12:20:21;;;;;;;57.03;1.90;;;31.70;99.90;;;;;;5152884;27;20440;-71
2021/09/30 12:22:52;;;;;;;57.30;2.00;;;32.30;99.90;;;;;;5054610;27;20458;-72
2021/09/30 12:25:23;;;;;;;57.17;1.90;;;33.00;99.90;;;;;;5048151;28;20455;-72
2021/09/30 12:27:52;;;;;;;56.97;1.80;;;33.90;99.90;;;;;;5047543;28;20468;-73
2021/09/30 12:30:23;;;;;;;56.77;1.83;;;34.40;99.90;;;;;;5047523;27;20579;-70
2021/09/30 12:32:52;;;;;;;57.10;1.90;;;35.00;99.90;;;;;;5048106;28;20535;-70
2021/09/30 12:35:21;;;;;;;56.77;1.80;;;35.30;99.90;;;;;;5047744;28;20459;-70
2021/09/30 12:37:50;;;;;;;56.77;1.90;;;35.10;99.90;;;;;;5047412;28;20560;-72
2021/09/30 12:40:20;;;;;;;57.47;2.03;;;35.00;99.90;;;;;;5047877;28;20531;-72
2021/09/30 12:43:02;;;;;;;56.97;2.03;;;34.80;99.90;;;;;;5047638;27;20452;-73
2021/09/30 12:45:33;;;;;;;56.93;1.80;;;34.50;99.90;;;;;;5047867;28;20455;-73
2021/09/30 12:48:08;;;;;;;56.87;1.80;;;34.30;99.90;;;;;;5047901;28;20468;-72
2021/09/30 12:50:42;;;;;;;56.87;1.70;;;33.80;99.90;;;;;;5047679;28;20479;-71
2021/09/30 12:53:10;;;;;;;57.90;2.13;;;33.60;99.90;;;;;;5046268;27;20916;-71
2021/09/30 12:55:37;;;;;;;56.57;1.80;;;34.00;99.90;;;;;;5047375;28;20521;-72
2021/09/30 12:58:04;;;;;;;56.57;1.70;;;34.30;99.90;;;;;;5048795;28;20464;-72
2021/09/30 13:00:35;;;;;;;57.20;1.90;;;34.50;99.90;;;;;;5050936;28;20939;-72
2021/09/30 13:03:13;;;;;;;56.77;1.73;;;34.80;99.90;;;;;;5050462;28;20943;-71
2021/09/30 13:05:46;;;;;;;56.90;1.80;;;35.30;99.90;;;;;;5049851;28;20822;-71
2021/09/30 13:08:14;;;;;;;56.90;2.27;;;35.60;99.90;;;;;;5049326;28;20831;-72
2021/09/30 13:10:40;;;;;;;56.70;1.70;;;35.90;99.90;;;;;;5049096;28;20487;-72
2021/09/30 13:13:13;;;;;;;56.90;1.90;;;36.30;99.90;;;;;;5049176;28;20448;-72
2021/09/30 13:15:43;;;;;;;56.77;1.70;;;36.80;99.90;;;;;;5048368;28;20540;-71
2021/09/30 13:18:12;;;;;;;56.70;1.90;;;37.00;99.90;;;;;;5048873;28;20468;-72
2021/09/30 13:20:40;;;;;;;56.67;2.00;;;37.10;99.90;;;;;;5050148;28;20477;-71
2021/09/30 13:23:07;;;;;;;56.60;2.20;;;37.20;99.90;;;;;;5050231;28;20974;-72
2021/09/30 13:25:34;;;;;;;56.60;1.80;;;36.90;99.90;;;;;;5050566;27;20459;-72
2021/09/30 13:28:01;;;;;;;56.97;2.07;;;36.80;99.90;;;;;;5050605;28;20912;-71
2021/09/30 13:30:31;;;;;;;56.97;1.87;;;36.50;99.90;;;;;;5050110;28;20488;-72
2021/09/30 13:33:01;;;;;;;57.10;2.10;;;36.40;99.90;;;;;;5050743;28;20455;-72
2021/09/30 13:35:31;;;;;;;56.90;2.00;;;36.40;99.90;;;;;;5050259;28;20459;-73
2021/09/30 13:37:59;;;;;;;56.70;1.97;;;36.60;99.90;;;;;;5050227;28;20499;-73
2021/09/30 13:40:27;;;;;;;56.67;2.07;;;36.50;99.90;;;;;;5050280;28;20531;-72
2021/09/30 13:42:54;;;;;;;56.87;1.90;;;36.50;99.90;;;;;;5050179;28;20543;-72
2021/09/30 13:45:22;;;;;;;56.87;2.10;;;36.50;99.90;;;;;;5050445;28;21032;-73
2021/09/30 13:47:49;;;;;;;56.70;1.80;;;36.40;99.90;;;;;;5050379;28;20552;-73
2021/09/30 13:50:21;;;;;;;56.87;1.80;;;36.30;99.90;;;;;;5050055;28;20583;-73
2021/09/30 13:52:50;;;;;;;56.53;1.70;;;36.40;99.90;;;;;;5050576;28;20564;-72
2021/09/30 13:55:18;;;;;;;56.77;1.80;;;36.50;99.90;;;;;;5050435;28;20472;-72
2021/09/30 13:57:45;;;;;;;57.20;2.00;;;36.40;99.90;;;;;;5050872;27;20487;-72
2021/09/30 14:00:16;;;;;;;56.73;1.83;;;36.20;99.90;;;;;;5050099;28;20452;-72
2021/09/30 14:02:45;;;;;;;56.80;2.00;;;35.40;99.90;;;;;;5050251;28;20873;-72
2021/09/30 14:05:14;;;;;;;57.03;1.80;;;34.70;99.90;;;;;;5049812;27;20492;-73
2021/09/30 14:07:42;;;;;;;56.87;1.90;;;34.40;99.90;;;;;;5049935;28;20616;-72
2021/09/30 14:10:11;;;;;;;57.50;2.00;;;34.30;99.90;;;;;;5049488;28;20568;-72
2021/09/30 14:12:38;;;;;;;57.17;2.00;;;34.10;99.90;;;;;;5050126;28;20539;-72
2021/09/30 14:15:07;;;;;;;56.93;1.90;;;34.10;99.90;;;;;;5049814;28;20451;-73
2021/09/30 14:17:34;;;;;;;57.87;2.30;;;34.10;99.90;;;;;;5049705;28;20464;-73
2021/09/30 14:20:01;;;;;;;57.07;1.87;;;34.00;99.90;;;;;;5049798;28;20535;-73
2021/09/30 14:22:28;;;;;;;57.17;1.97;;;33.10;99.90;;;;;;5049579;28;20460;-72
2021/09/30 14:24:56;;;;;;;57.17;1.97;;;32.70;99.90;;;;;;5049641;27;20494;-72
2021/09/30 14:27:24;;;;;;;57.17;2.03;;;32.60;99.90;;;;;;5047165;27;20840;-72
2021/09/30 14:29:51;;;;;;;57.37;1.90;;;32.70;99.90;;;;;;5049606;27;20488;-72
2021/09/30 14:32:18;;;;;;;57.17;2.00;;;32.60;99.90;;;;;;5049753;28;20860;-71
2021/09/30 14:34:45;;;;;;;57.17;2.00;;;32.60;99.90;;;;;;5049581;28;20539;-72
2021/09/30 14:37:12;;;;;;;57.27;1.90;;;32.60;99.90;;;;;;5049158;28;20879;-73
2021/09/30 14:39:40;;;;;;;57.27;2.03;;;32.60;99.90;;;;;;5049156;28;20445;-72
2021/09/30 14:42:10;;;;;;;57.37;1.90;;;32.40;99.90;;;;;;5049430;28;20543;-73
2021/09/30 14:44:37;;;;;;;57.33;2.00;;;32.00;99.90;;;;;;5049198;27;20974;-72
2021/09/30 14:47:05;;;;;;;57.37;2.03;;;31.50;99.90;;;;;;5049311;28;20543;-73
2021/09/30 14:49:37;;;;;;;57.30;1.80;;;31.10;99.90;;;;;;5049437;28;20766;-72
2021/09/30 14:52:05;;;;;;;57.27;1.90;;;31.00;99.90;;;;;;5049630;28;20458;-72
2021/09/30 14:54:32;;;;;;;57.17;1.70;;;31.10;99.90;;;;;;5049450;28;20443;-72
2021/09/30 14:56:58;;;;;;;57.40;1.90;;;31.10;99.90;;;;;;5048920;28;20533;-72
2021/09/30 14:59:27;;;;;;;57.47;1.70;;;31.10;99.90;;;;;;5048052;27;20446;-73
2021/09/30 15:01:54;;;;;;;57.43;1.97;;;30.50;99.90;;;;;;5048819;28;20527;-73
2021/09/30 15:04:21;;;;;;;57.67;1.93;;;30.20;99.90;;;;;;5049083;27;20780;-72
2021/09/30 15:06:50;;;;;;;57.47;1.97;;;30.20;99.90;;;;;;5049024;28;20445;-72
2021/09/30 15:09:17;;;;;;;57.43;2.00;;;30.40;99.90;;;;;;5049220;28;20471;-73
2021/09/30 15:11:44;;;;;;;57.53;2.00;;;30.10;99.90;;;;;;5049099;28;20484;-72
2021/09/30 15:14:11;;;;;;;57.50;2.00;;;29.80;99.90;;;;;;5048836;28;20449;-72
2021/09/30 15:16:42;;;;;;;57.37;2.20;;;29.70;99.90;;;;;;5048271;28;20884;-72
2021/09/30 15:19:16;;;;;;;57.50;1.83;;;29.70;99.90;;;;;;5049018;27;20472;-72
2021/09/30 15:21:43;;;;;;;57.47;2.10;;;29.70;99.90;;;;;;5047691;28;20543;-72
2021/09/30 15:24:10;;;;;;;57.60;1.97;;;29.80;99.90;;;;;;5049188;28;20448;-72
2021/09/30 15:26:39;;;;;;;57.40;2.10;;;29.80;99.90;;;;;;5048600;27;20831;-72
2021/09/30 15:29:05;;;;;;;57.27;2.30;;;29.70;99.90;;;;;;5048656;28;20474;-73
2021/09/30 15:31:33;;;;;;;57.50;2.10;;;29.50;99.90;;;;;;5047774;27;20488;-72
2021/09/30 15:34:02;;;;;;;57.37;2.10;;;29.20;99.90;;;;;;5048935;28;20508;-72